createdAt,value
2022-08-19T00:00:37.999Z,82.72705078
2022-08-19T00:01:38.502Z,82.48901367
2022-08-19T00:02:38.963Z,82.18383789
2022-08-19T00:03:39.347Z,82.28759766
2022-08-19T00:04:39.798Z,82.32421875
2022-08-19T00:05:40.236Z,82.28759766
2022-08-19T00:06:40.690Z,82.08618164
2022-08-19T00:07:41.120Z,82.18383789
2022-08-19T00:08:42.932Z,82.08618164
2022-08-19T00:09:43.055Z,82.08618164
2022-08-19T00:10:43.572Z,81.92749023
2022-08-19T00:11:44.030Z,81.88476563
2022-08-19T00:12:47.122Z,82.12280273
2022-08-19T00:13:45.290Z,82.32421875
2022-08-19T00:14:45.471Z,82.62939453
2022-08-19T00:15:46.002Z,82.82470703
2022-08-19T00:16:46.495Z,82.82470703
2022-08-19T00:17:47.011Z,82.9284668
2022-08-19T00:18:47.415Z,82.9284668
2022-08-19T00:19:48.604Z,82.82470703
2022-08-19T00:20:49.121Z,82.9284668
2022-08-19T00:22:20.563Z,82.82470703
2022-08-19T00:23:21.182Z,82.78808594
2022-08-19T00:24:21.689Z,82.69042969
2022-08-19T00:25:29.869Z,82.69042969
2022-08-19T00:26:22.747Z,82.69042969
2022-08-19T00:27:26.312Z,82.78808594
2022-08-19T00:28:23.765Z,82.08618164
2022-08-19T00:29:24.163Z,81.78710938
2022-08-19T00:30:25.350Z,81.78710938
2022-08-19T00:31:25.871Z,82.08618164
2022-08-19T00:32:26.379Z,82.28759766
2022-08-19T00:33:27.814Z,82.58666992
2022-08-19T00:34:28.201Z,82.82470703
2022-08-19T00:35:28.779Z,82.9284668
2022-08-19T00:36:29.469Z,83.02612305
2022-08-19T00:37:30.010Z,83.02612305
2022-08-19T00:38:36.789Z,82.9284668
2022-08-19T00:39:30.934Z,82.82470703
2022-08-19T00:40:32.356Z,82.69042969
2022-08-19T00:41:32.857Z,82.58666992
2022-08-19T00:42:33.355Z,82.58666992
2022-08-19T00:43:33.822Z,82.58666992
2022-08-19T00:44:34.773Z,82.58666992
2022-08-19T00:45:36.507Z,82.69042969
2022-08-19T00:46:35.730Z,82.78808594
2022-08-19T00:47:36.184Z,82.88574219
2022-08-19T00:48:36.676Z,82.78808594
2022-08-19T00:49:37.067Z,82.78808594
2022-08-19T00:50:38.395Z,82.78808594
2022-08-19T00:51:38.862Z,82.88574219
2022-08-19T00:52:39.324Z,82.88574219
2022-08-19T00:53:39.797Z,82.98950195
2022-08-19T00:54:40.189Z,82.78808594
2022-08-19T00:55:40.688Z,82.78808594
2022-08-19T00:56:41.678Z,82.78808594
2022-08-19T00:57:42.272Z,82.78808594
2022-08-19T00:58:42.719Z,82.69042969
2022-08-19T00:59:58.798Z,82.58666992
2022-08-19T01:00:44.350Z,82.18383789
2022-08-19T01:01:44.890Z,81.98852539
2022-08-19T01:02:45.251Z,81.98852539
2022-08-19T01:03:57.985Z,81.88476563
2022-08-19T01:04:46.771Z,81.88476563
2022-08-19T01:05:47.304Z,81.88476563
2022-08-19T01:06:47.748Z,81.68334961
2022-08-19T01:07:48.223Z,81.38427734
2022-08-19T01:08:50.307Z,81.48193359
2022-08-19T01:10:20.560Z,81.38427734
2022-08-19T01:11:21.064Z,81.28662109
2022-08-19T01:12:21.508Z,81.28662109
2022-08-19T01:13:21.975Z,81.42089844
2022-08-19T01:14:22.424Z,81.72607422
2022-08-19T01:15:22.817Z,81.82373047
2022-08-19T01:16:23.295Z,81.72607422
2022-08-19T01:17:23.745Z,81.72607422
2022-08-19T01:18:24.234Z,81.82373047
2022-08-19T01:19:25.589Z,81.82373047
2022-08-19T01:20:26.567Z,81.72607422
2022-08-19T01:21:27.194Z,81.62231445
2022-08-19T01:22:33.320Z,81.62231445
2022-08-19T01:23:28.902Z,81.5246582
2022-08-19T01:24:29.359Z,81.5246582
2022-08-19T01:25:29.734Z,81.32324219
2022-08-19T01:26:31.369Z,81.42089844
2022-08-19T01:27:35.400Z,81.42089844
2022-08-19T01:28:34.196Z,81.32324219
2022-08-19T01:29:31.880Z,81.02416992
2022-08-19T01:30:32.862Z,81.22558594
2022-08-19T01:31:33.542Z,81.42089844
2022-08-19T01:32:34.258Z,81.42089844
2022-08-19T01:33:34.334Z,81.62231445
2022-08-19T01:34:34.802Z,81.72607422
2022-08-19T01:35:35.208Z,81.72607422
2022-08-19T01:36:35.687Z,81.62231445
2022-08-19T01:37:36.218Z,81.72607422
2022-08-19T01:38:36.745Z,81.62231445
2022-08-19T01:39:37.267Z,81.72607422
2022-08-19T01:40:38.272Z,81.72607422
2022-08-19T01:41:38.795Z,81.5246582
2022-08-19T01:42:39.309Z,81.32324219
2022-08-19T01:44:13.447Z,81.12182617
2022-08-19T01:44:40.378Z,81.12182617
2022-08-19T01:45:40.933Z,81.42089844
2022-08-19T01:46:41.564Z,81.42089844
2022-08-19T01:47:42.896Z,81.12182617
2022-08-19T01:48:43.395Z,81.02416992
2022-08-19T01:49:43.915Z,80.92041016
2022-08-19T01:50:45.257Z,80.92041016
2022-08-19T01:51:45.672Z,81.02416992
2022-08-19T01:52:46.914Z,81.12182617
2022-08-19T01:53:47.187Z,81.12182617
2022-08-19T01:54:47.628Z,81.02416992
2022-08-19T01:55:48.484Z,81.12182617
2022-08-19T01:57:19.126Z,81.02416992
2022-08-19T01:58:19.545Z,81.02416992
2022-08-19T01:59:19.987Z,81.12182617
2022-08-19T02:00:21.105Z,81.22558594
2022-08-19T02:01:21.584Z,81.32324219
2022-08-19T02:02:21.899Z,81.42089844
2022-08-19T02:03:22.285Z,81.62231445
2022-08-19T02:04:22.682Z,81.82373047
2022-08-19T02:05:23.145Z,82.02514648
2022-08-19T02:06:26.905Z,81.92749023
2022-08-19T02:07:23.938Z,81.72607422
2022-08-19T02:08:24.339Z,81.5246582
2022-08-19T02:09:24.745Z,81.5246582
2022-08-19T02:10:26.096Z,81.42089844
2022-08-19T02:11:26.529Z,81.5246582
2022-08-19T02:12:26.940Z,81.62231445
2022-08-19T02:13:27.348Z,81.62231445
2022-08-19T02:14:27.771Z,81.72607422
2022-08-19T02:15:29.103Z,81.62231445
2022-08-19T02:16:29.531Z,81.42089844
2022-08-19T02:17:29.936Z,81.42089844
2022-08-19T02:18:30.370Z,81.42089844
2022-08-19T02:19:30.797Z,81.42089844
2022-08-19T02:20:32.094Z,81.32324219
2022-08-19T02:21:32.570Z,81.42089844
2022-08-19T02:22:33.001Z,81.42089844
2022-08-19T02:23:33.447Z,81.42089844
2022-08-19T02:24:33.862Z,81.5246582
2022-08-19T02:25:34.317Z,81.62231445
2022-08-19T02:26:34.704Z,81.72607422
2022-08-19T02:27:35.779Z,81.92749023
2022-08-19T02:28:36.186Z,82.02514648
2022-08-19T02:29:36.576Z,82.12280273
2022-08-19T02:30:37.609Z,82.12280273
2022-08-19T02:31:37.966Z,82.2265625
2022-08-19T02:32:44.473Z,82.12280273
2022-08-19T02:33:38.817Z,82.32421875
2022-08-19T02:34:39.234Z,82.2265625
2022-08-19T02:35:39.686Z,82.2265625
2022-08-19T02:36:42.413Z,82.32421875
2022-08-19T02:37:41.263Z,82.46459961
2022-08-19T02:38:41.781Z,82.56835938
2022-08-19T02:39:42.223Z,82.66601563
2022-08-19T02:40:42.633Z,82.76367188
2022-08-19T02:41:43.777Z,82.76367188
2022-08-19T02:42:44.203Z,82.66601563
2022-08-19T02:43:59.445Z,82.66601563
2022-08-19T02:44:45.074Z,82.76367188
2022-08-19T02:45:45.512Z,82.66601563
2022-08-19T02:46:46.012Z,82.76367188
2022-08-19T02:47:46.355Z,82.86743164
2022-08-19T02:48:46.755Z,82.86743164
2022-08-19T02:49:47.154Z,82.76367188
2022-08-19T02:51:18.810Z,82.76367188
2022-08-19T02:52:19.173Z,82.86743164
2022-08-19T02:53:19.580Z,82.96508789
2022-08-19T02:54:19.980Z,82.86743164
2022-08-19T02:55:20.412Z,82.66601563
2022-08-19T02:56:20.851Z,82.66601563
2022-08-19T02:57:22.083Z,82.46459961
2022-08-19T02:58:22.530Z,82.46459961
2022-08-19T02:59:23.140Z,82.76367188
2022-08-19T03:00:23.345Z,83.06884766
2022-08-19T03:01:24.412Z,83.47167969
2022-08-19T03:02:24.719Z,83.80737305
2022-08-19T03:03:25.199Z,84.21020508
2022-08-19T03:04:25.611Z,84.41162109
2022-08-19T03:05:48.170Z,84.61303711
2022-08-19T03:06:26.468Z,84.71069336
2022-08-19T03:07:26.848Z,84.91210938
2022-08-19T03:08:27.263Z,84.81445313
2022-08-19T03:09:27.719Z,84.71069336
2022-08-19T03:10:28.120Z,84.61303711
2022-08-19T03:11:29.287Z,84.41162109
2022-08-19T03:12:29.711Z,84.17358398
2022-08-19T03:13:30.124Z,84.06982422
2022-08-19T03:14:30.522Z,83.77075195
2022-08-19T03:15:30.974Z,83.56933594
2022-08-19T03:16:33.230Z,83.66699219
2022-08-19T03:17:31.803Z,83.66699219
2022-08-19T03:18:32.209Z,83.66699219
2022-08-19T03:19:32.616Z,83.56933594
2022-08-19T03:20:33.617Z,83.47167969
2022-08-19T03:21:34.088Z,83.27026367
2022-08-19T03:22:35.275Z,83.16650391
2022-08-19T03:23:35.689Z,82.96508789
2022-08-19T03:24:36.087Z,83.06884766
2022-08-19T03:25:36.505Z,83.06884766
2022-08-19T03:26:36.990Z,83.06884766
2022-08-19T03:27:37.397Z,83.06884766
2022-08-19T03:28:37.832Z,83.06884766
2022-08-19T03:29:43.974Z,83.16650391
2022-08-19T03:30:38.647Z,83.16650391
2022-08-19T03:31:45.709Z,83.27026367
2022-08-19T03:32:45.263Z,83.06884766
2022-08-19T03:33:40.609Z,82.96508789
2022-08-19T03:34:41.006Z,82.86743164
2022-08-19T03:35:41.706Z,83.06884766
2022-08-19T03:36:42.148Z,82.96508789
2022-08-19T03:37:42.515Z,82.86743164
2022-08-19T03:38:42.923Z,82.76367188
2022-08-19T03:39:43.443Z,82.66601563
2022-08-19T03:40:43.779Z,82.66601563
2022-08-19T03:41:46.299Z,82.66601563
2022-08-19T03:42:48.855Z,82.76367188
2022-08-19T03:43:45.586Z,82.76367188
2022-08-19T03:44:46.033Z,82.66601563
2022-08-19T03:45:46.418Z,82.66601563
2022-08-19T03:47:17.560Z,82.56835938
2022-08-19T03:48:17.839Z,82.36694336
2022-08-19T03:49:18.708Z,82.36694336
2022-08-19T03:50:19.590Z,82.46459961
2022-08-19T03:51:20.590Z,82.56835938
2022-08-19T03:52:21.005Z,82.66601563
2022-08-19T03:53:21.386Z,82.66601563
2022-08-19T03:54:21.779Z,82.46459961
2022-08-19T03:55:22.195Z,82.36694336
2022-08-19T03:56:23.476Z,82.36694336
2022-08-19T03:57:31.657Z,82.26318359
2022-08-19T03:58:24.146Z,82.26318359
2022-08-19T03:59:24.594Z,82.06176758
2022-08-19T04:00:25.003Z,82.26318359
2022-08-19T04:01:35.181Z,82.46459961
2022-08-19T04:02:26.534Z,82.56835938
2022-08-19T04:03:26.742Z,82.76367188
2022-08-19T04:04:29.027Z,82.90405273
2022-08-19T04:05:27.612Z,83.20922852
2022-08-19T04:06:28.011Z,83.30688477
2022-08-19T04:07:28.453Z,83.30688477
2022-08-19T04:08:28.854Z,83.74633789
2022-08-19T04:09:29.260Z,83.94775391
2022-08-19T04:10:29.666Z,84.00878906
2022-08-19T04:11:42.761Z,84.00878906
2022-08-19T04:12:30.466Z,83.91113281
2022-08-19T04:13:30.873Z,83.80737305
2022-08-19T04:14:31.602Z,83.91113281
2022-08-19T04:15:31.754Z,83.50830078
2022-08-19T04:16:35.316Z,83.44726563
2022-08-19T04:17:33.457Z,83.74633789
2022-08-19T04:18:36.357Z,83.94775391
2022-08-19T04:19:34.140Z,84.14916992
2022-08-19T04:20:34.546Z,83.94775391
2022-08-19T04:21:34.963Z,84.28955078
2022-08-19T04:22:35.440Z,84.39331055
2022-08-19T04:23:35.818Z,84.4543457
2022-08-19T04:24:36.248Z,84.35058594
2022-08-19T04:25:36.637Z,83.94775391
2022-08-19T04:26:37.069Z,83.94775391
2022-08-19T04:27:37.526Z,83.94775391
2022-08-19T04:28:37.911Z,83.74633789
2022-08-19T04:29:38.354Z,83.64868164
2022-08-19T04:30:38.749Z,84.08813477
2022-08-19T04:31:39.793Z,84.19189453
2022-08-19T04:32:40.235Z,84.4909668
2022-08-19T04:33:40.611Z,84.4909668
2022-08-19T04:35:02.040Z,84.19189453
2022-08-19T04:35:42.599Z,84.19189453
2022-08-19T04:36:43.024Z,84.08813477
2022-08-19T04:37:43.471Z,83.99047852
2022-08-19T04:38:43.862Z,84.08813477
2022-08-19T04:39:44.351Z,83.99047852
2022-08-19T04:40:44.721Z,83.85009766
2022-08-19T04:41:45.797Z,83.24584961
2022-08-19T04:43:16.794Z,83.34960938
2022-08-19T04:44:17.178Z,83.55102539
2022-08-19T04:45:17.661Z,83.24584961
2022-08-19T04:46:39.314Z,83.34960938
2022-08-19T04:47:18.445Z,83.44726563
2022-08-19T04:48:19.786Z,83.34960938
2022-08-19T04:49:19.253Z,83.14819336
2022-08-19T04:50:19.662Z,83.24584961
2022-08-19T04:51:20.062Z,83.34960938
2022-08-19T04:52:20.468Z,83.24584961
2022-08-19T04:53:20.928Z,83.24584961
2022-08-19T04:54:36.987Z,83.04443359
2022-08-19T04:55:21.682Z,82.94677734
2022-08-19T04:56:22.140Z,82.84301758
2022-08-19T04:57:22.543Z,82.64160156
2022-08-19T04:58:22.976Z,82.04345703
2022-08-19T04:59:23.357Z,81.84204102
2022-08-19T05:00:23.763Z,81.70166016
2022-08-19T05:01:25.157Z,81.84204102
2022-08-19T05:02:25.522Z,82.10449219
2022-08-19T05:03:30.046Z,82.04345703
2022-08-19T05:04:26.344Z,81.29882813
2022-08-19T05:05:26.757Z,81.34155273
2022-08-19T05:06:27.247Z,81.640625
2022-08-19T05:07:27.636Z,81.73828125
2022-08-19T05:08:31.253Z,81.84204102
2022-08-19T05:09:28.440Z,81.43920898
2022-08-19T05:10:29.616Z,81.53686523
2022-08-19T05:11:30.603Z,81.53686523
2022-08-19T05:12:31.007Z,81.60400391
2022-08-19T05:13:31.621Z,81.70166016
2022-08-19T05:14:32.120Z,81.70166016
2022-08-19T05:15:32.612Z,81.70166016
2022-08-19T05:16:33.018Z,81.70166016
2022-08-19T05:17:37.789Z,81.70166016
2022-08-19T05:18:33.948Z,81.90307617
2022-08-19T05:19:34.383Z,81.90307617
2022-08-19T05:20:34.861Z,81.79931641
2022-08-19T05:21:36.103Z,81.79931641
2022-08-19T05:22:36.555Z,81.79931641
2022-08-19T05:23:37.025Z,81.70166016
2022-08-19T05:24:51.220Z,81.79931641
2022-08-19T05:25:38.012Z,81.90307617
2022-08-19T05:26:38.487Z,82.00073242
2022-08-19T05:27:38.898Z,82.10449219
2022-08-19T05:28:39.445Z,82.20214844
2022-08-19T05:29:39.917Z,82.20214844
2022-08-19T05:30:47.325Z,82.20214844
2022-08-19T05:31:41.900Z,82.06176758
2022-08-19T05:32:42.020Z,81.90307617
2022-08-19T05:33:42.625Z,82.10449219
2022-08-19T05:34:43.078Z,82.20214844
2022-08-19T05:35:44.157Z,82.50732422
2022-08-19T05:36:44.646Z,82.70263672
2022-08-19T05:37:45.067Z,82.80639648
2022-08-19T05:39:16.159Z,83.0078125
2022-08-19T05:40:16.760Z,82.90405273
2022-08-19T05:41:17.246Z,83.0078125
2022-08-19T05:42:18.312Z,83.10546875
2022-08-19T05:43:18.732Z,83.20922852
2022-08-19T05:44:19.314Z,83.27026367
2022-08-19T05:45:19.728Z,83.41064453
2022-08-19T05:46:27.642Z,83.47167969
2022-08-19T05:47:20.940Z,83.47167969
2022-08-19T05:48:21.091Z,83.06884766
2022-08-19T05:49:21.615Z,82.66601563
2022-08-19T05:50:22.654Z,82.46459961
2022-08-19T05:51:27.260Z,81.90307617
2022-08-19T05:52:25.717Z,82.00073242
2022-08-19T05:53:24.733Z,82.20214844
2022-08-19T05:54:25.203Z,82.20214844
2022-08-19T05:55:25.672Z,82.20214844
2022-08-19T05:56:26.894Z,82.3059082
2022-08-19T05:57:27.316Z,82.3059082
2022-08-19T05:58:28.086Z,82.20214844
2022-08-19T05:59:28.237Z,82.40356445
2022-08-19T06:00:28.730Z,82.20214844
2022-08-19T06:01:29.203Z,82.20214844
2022-08-19T06:02:30.402Z,82.20214844
2022-08-19T06:03:30.787Z,82.20214844
2022-08-19T06:04:31.222Z,82.50732422
2022-08-19T06:05:31.738Z,82.60498047
2022-08-19T06:06:32.224Z,82.60498047
2022-08-19T06:07:32.771Z,82.50732422
2022-08-19T06:08:33.844Z,82.40356445
2022-08-19T06:09:33.539Z,82.50732422
2022-08-19T06:10:33.980Z,82.60498047
2022-08-19T06:11:34.455Z,82.60498047
2022-08-19T06:12:35.883Z,82.60498047
2022-08-19T06:13:36.297Z,82.60498047
2022-08-19T06:14:40.245Z,82.70263672
2022-08-19T06:15:37.200Z,82.60498047
2022-08-19T06:16:37.734Z,82.40356445
2022-08-19T06:17:38.201Z,82.50732422
2022-08-19T06:18:38.602Z,82.60498047
2022-08-19T06:19:40.893Z,82.90405273
2022-08-19T06:20:55.004Z,83.0078125
2022-08-19T06:21:40.644Z,83.0078125
2022-08-19T06:22:41.917Z,83.20922852
2022-08-19T06:23:42.349Z,83.20922852
2022-08-19T06:24:42.795Z,83.30688477
2022-08-19T06:25:43.905Z,83.30688477
2022-08-19T06:28:11.592Z,83.10546875
2022-08-19T06:29:23.758Z,83.10546875
2022-08-19T06:30:16.433Z,83.10546875
2022-08-19T06:31:16.921Z,83.0078125
2022-08-19T06:32:18.155Z,82.90405273
2022-08-19T06:33:18.713Z,83.0078125
2022-08-19T06:34:19.746Z,82.90405273
2022-08-19T06:35:19.462Z,82.90405273
2022-08-19T06:36:19.996Z,83.0078125
2022-08-19T06:37:20.533Z,83.34960938
2022-08-19T06:38:20.980Z,83.64868164
2022-08-19T06:39:21.406Z,83.85009766
2022-08-19T06:40:21.899Z,83.94775391
2022-08-19T06:41:22.295Z,84.19189453
2022-08-19T06:42:29.740Z,84.25292969
2022-08-19T06:43:30.180Z,84.39331055
2022-08-19T06:44:30.614Z,84.28955078
2022-08-19T06:45:35.734Z,84.25292969
2022-08-19T06:46:33.585Z,84.4543457
2022-08-19T06:47:32.946Z,84.95483398
2022-08-19T06:48:35.568Z,85.8581543
2022-08-19T06:49:34.179Z,85.95581055
2022-08-19T06:50:35.169Z,86.19995117
2022-08-19T06:51:35.675Z,86.40136719
2022-08-19T06:52:38.359Z,86.6027832
2022-08-19T06:53:37.444Z,86.49902344
2022-08-19T06:54:56.590Z,86.19995117
2022-08-19T06:55:38.866Z,85.99853516
2022-08-19T06:56:39.338Z,85.49804688
2022-08-19T06:57:39.841Z,85.9375
2022-08-19T06:58:40.347Z,86.54174805
2022-08-19T06:59:40.790Z,86.64550781
2022-08-19T07:00:41.238Z,86.94458008
2022-08-19T07:01:41.824Z,87.14599609
2022-08-19T07:02:48.055Z,86.64550781
2022-08-19T07:03:43.458Z,86.4440918
2022-08-19T07:04:43.887Z,85.83984375
2022-08-19T07:05:45.447Z,85.13793945
2022-08-19T07:07:19.729Z,85.33325195
2022-08-19T07:08:15.803Z,84.22851563
2022-08-19T07:09:18.411Z,84.33227539
2022-08-19T07:10:16.779Z,84.33227539
2022-08-19T07:11:17.240Z,84.42993164
2022-08-19T07:12:18.255Z,84.63134766
2022-08-19T07:13:18.792Z,84.42993164
2022-08-19T07:14:19.909Z,84.42993164
2022-08-19T07:15:19.694Z,84.22851563
2022-08-19T07:16:20.136Z,84.02709961
2022-08-19T07:17:20.593Z,83.92944336
2022-08-19T07:18:21.125Z,84.02709961
2022-08-19T07:19:21.618Z,83.92944336
2022-08-19T07:20:22.636Z,83.92944336
2022-08-19T07:21:23.084Z,84.02709961
2022-08-19T07:22:24.635Z,84.13085938
2022-08-19T07:23:24.773Z,84.33227539
2022-08-19T07:24:25.245Z,84.5703125
2022-08-19T07:25:32.364Z,84.67407227
2022-08-19T07:26:28.283Z,84.5703125
2022-08-19T07:27:28.124Z,84.47265625
2022-08-19T07:28:28.598Z,84.16748047
2022-08-19T07:29:29.103Z,84.41162109
2022-08-19T07:30:29.531Z,84.81445313
2022-08-19T07:31:31.083Z,85.11352539
2022-08-19T07:32:31.223Z,85.11352539
2022-08-19T07:33:31.794Z,85.31494141
2022-08-19T07:34:32.336Z,85.62011719
2022-08-19T07:35:32.756Z,85.62011719
2022-08-19T07:36:33.222Z,85.47973633
2022-08-19T07:37:33.670Z,85.17456055
2022-08-19T07:38:34.243Z,84.97314453
2022-08-19T07:39:34.810Z,84.47265625
2022-08-19T07:40:35.263Z,84.27124023
2022-08-19T07:41:35.722Z,84.36889648
2022-08-19T07:42:36.638Z,84.27124023
2022-08-19T07:43:37.237Z,84.27124023
2022-08-19T07:45:38.286Z,84.63134766
2022-08-19T07:46:38.724Z,84.13085938
2022-08-19T07:47:47.989Z,84.02709961
2022-08-19T07:48:39.713Z,83.92944336
2022-08-19T07:49:40.253Z,84.13085938
2022-08-19T07:50:41.638Z,84.02709961
2022-08-19T07:51:42.061Z,84.02709961
2022-08-19T07:52:43.198Z,83.82568359
2022-08-19T07:53:43.777Z,83.52661133
2022-08-19T07:55:41.708Z,83.66699219
2022-08-19T07:56:15.869Z,84.06982422
2022-08-19T07:57:16.381Z,83.96606445
2022-08-19T07:58:16.758Z,84.06982422
2022-08-19T07:59:17.302Z,83.92944336
2022-08-19T08:00:21.689Z,84.16748047
2022-08-19T08:01:18.291Z,84.27124023
2022-08-19T08:02:19.647Z,84.33227539
2022-08-19T08:03:20.063Z,84.33227539
2022-08-19T08:04:21.208Z,84.42993164
2022-08-19T08:05:21.809Z,84.63134766
2022-08-19T08:06:22.276Z,84.22851563
2022-08-19T08:07:22.757Z,84.22851563
2022-08-19T08:08:23.242Z,84.22851563
2022-08-19T08:09:23.779Z,84.13085938
2022-08-19T08:10:24.656Z,83.92944336
2022-08-19T08:11:25.454Z,83.63037109
2022-08-19T08:12:34.572Z,83.82568359
2022-08-19T08:13:27.171Z,83.92944336
2022-08-19T08:14:29.365Z,84.02709961
2022-08-19T08:15:28.205Z,83.92944336
2022-08-19T08:16:28.736Z,83.82568359
2022-08-19T08:17:40.689Z,83.63037109
2022-08-19T08:18:30.426Z,83.72802734
2022-08-19T08:19:30.231Z,83.02612305
2022-08-19T08:20:31.683Z,82.421875
2022-08-19T08:21:32.150Z,82.72094727
2022-08-19T08:22:33.193Z,82.92236328
2022-08-19T08:23:33.593Z,83.02612305
2022-08-19T08:24:34.157Z,82.421875
2022-08-19T08:25:35.353Z,82.72094727
2022-08-19T08:26:35.851Z,82.82470703
2022-08-19T08:27:36.314Z,82.82470703
2022-08-19T08:28:36.698Z,83.1237793
2022-08-19T08:29:37.235Z,82.92236328
2022-08-19T08:30:37.711Z,83.1237793
2022-08-19T08:31:38.242Z,82.72094727
2022-08-19T08:32:39.671Z,82.92236328
2022-08-19T08:33:40.046Z,83.1237793
2022-08-19T08:34:40.569Z,83.18481445
2022-08-19T08:35:41.099Z,83.18481445
2022-08-19T08:36:41.790Z,83.18481445
2022-08-19T08:37:42.247Z,83.28857422
2022-08-19T08:38:42.706Z,83.18481445
2022-08-19T08:39:43.294Z,82.94677734
2022-08-19T08:41:14.235Z,83.14819336
2022-08-19T08:42:17.873Z,82.64160156
2022-08-19T08:43:15.898Z,82.3425293
2022-08-19T08:44:17.320Z,82.54394531
2022-08-19T08:45:17.007Z,82.64160156
2022-08-19T08:46:31.645Z,82.44628906
2022-08-19T08:47:17.801Z,82.54394531
2022-08-19T08:48:22.053Z,82.24487305
2022-08-19T08:49:19.561Z,81.93969727
2022-08-19T08:50:20.503Z,82.14111328
2022-08-19T08:51:20.706Z,82.24487305
2022-08-19T08:52:21.860Z,82.44628906
2022-08-19T08:53:29.756Z,82.14111328
2022-08-19T08:54:23.358Z,82.24487305
2022-08-19T08:55:23.831Z,82.3425293
2022-08-19T08:56:24.972Z,82.44628906
2022-08-19T08:57:25.429Z,82.44628906
2022-08-19T08:58:26.105Z,81.79931641
2022-08-19T08:59:26.567Z,81.70166016
2022-08-19T09:00:27.106Z,82.00073242
2022-08-19T09:01:30.393Z,82.10449219
2022-08-19T09:02:28.036Z,82.3059082
2022-08-19T09:03:31.607Z,82.40356445
2022-08-19T09:04:29.874Z,82.3059082
2022-08-19T09:05:39.534Z,82.70263672
2022-08-19T09:06:31.433Z,82.90405273
2022-08-19T09:07:34.826Z,82.70263672
2022-08-19T09:08:32.392Z,82.3059082
2022-08-19T09:09:32.862Z,82.3059082
2022-08-19T09:10:33.306Z,82.3059082
2022-08-19T09:11:42.086Z,82.3059082
2022-08-19T09:12:34.157Z,82.50732422
2022-08-19T09:13:37.558Z,82.60498047
2022-08-19T09:14:50.163Z,82.40356445
2022-08-19T09:15:36.875Z,82.26318359
2022-08-19T09:16:36.835Z,82.46459961
2022-08-19T09:17:37.856Z,82.56835938
2022-08-19T09:18:38.315Z,82.46459961
2022-08-19T09:19:38.755Z,82.66601563
2022-08-19T09:20:41.310Z,82.46459961
2022-08-19T09:21:39.654Z,82.16552734
2022-08-19T09:22:40.095Z,81.46362305
2022-08-19T09:23:41.679Z,80.76171875
2022-08-19T09:24:42.122Z,80.56030273
2022-08-19T09:25:42.623Z,80.92041016
2022-08-19T09:27:18.760Z,81.26220703
2022-08-19T09:28:22.364Z,81.5612793
2022-08-19T09:29:14.411Z,81.46362305
2022-08-19T09:30:14.882Z,81.15844727
2022-08-19T09:31:15.344Z,80.56030273
2022-08-19T09:32:26.155Z,80.76171875
2022-08-19T09:33:17.213Z,80.96313477
2022-08-19T09:34:21.341Z,80.859375
2022-08-19T09:35:18.044Z,80.92041016
2022-08-19T09:36:21.820Z,80.82275391
2022-08-19T09:37:18.945Z,80.71899414
2022-08-19T09:38:19.375Z,80.71899414
2022-08-19T09:39:19.835Z,80.71899414
2022-08-19T09:40:20.315Z,80.21850586
2022-08-19T09:41:20.743Z,80.32226563
2022-08-19T09:42:30.586Z,80.21850586
2022-08-19T09:43:33.793Z,80.21850586
2022-08-19T09:44:22.622Z,81.02416992
2022-08-19T09:45:23.221Z,81.72607422
2022-08-19T09:46:23.899Z,81.92749023
2022-08-19T09:47:23.955Z,82.02514648
2022-08-19T09:48:24.354Z,81.98852539
2022-08-19T09:49:24.856Z,81.78710938
2022-08-19T09:50:25.284Z,81.78710938
2022-08-19T09:51:25.852Z,82.08618164
2022-08-19T09:52:26.113Z,82.18383789
2022-08-19T09:53:27.155Z,82.48901367
2022-08-19T09:54:27.665Z,83.0871582
2022-08-19T09:55:31.048Z,82.98950195
2022-08-19T09:56:28.583Z,82.75146484
2022-08-19T09:57:29.025Z,81.84814453
2022-08-19T09:58:29.448Z,81.4453125
2022-08-19T09:59:29.935Z,81.64672852
2022-08-19T10:00:30.347Z,81.84814453
2022-08-19T10:01:30.876Z,82.34863281
2022-08-19T10:02:31.380Z,81.94580078
2022-08-19T10:03:32.656Z,81.64672852
2022-08-19T10:04:33.193Z,81.24389648
2022-08-19T10:05:33.615Z,81.4453125
2022-08-19T10:06:46.120Z,81.04248047
2022-08-19T10:07:36.571Z,81.24389648
2022-08-19T10:08:35.752Z,80.7434082
2022-08-19T10:09:36.252Z,80.94482422
2022-08-19T10:10:36.675Z,80.54199219
2022-08-19T10:11:39.703Z,81.00585938
2022-08-19T10:12:37.548Z,81.50634766
2022-08-19T10:13:38.658Z,82.1105957
2022-08-19T10:14:39.280Z,82.00683594
2022-08-19T10:15:47.245Z,81.30493164
2022-08-19T10:16:39.996Z,81.20727539
2022-08-19T10:17:40.393Z,80.60913086
2022-08-19T10:18:40.834Z,80.50537109
2022-08-19T10:19:41.558Z,80.36499023
2022-08-19T10:20:42.670Z,80.26733398
2022-08-19T10:22:13.306Z,80.06591797
2022-08-19T10:23:13.709Z,80.06591797
2022-08-19T10:24:14.865Z,79.7668457
2022-08-19T10:25:15.354Z,79.7668457
2022-08-19T10:26:16.673Z,79.96826172
2022-08-19T10:27:17.096Z,80.26733398
2022-08-19T10:28:19.147Z,80.46875
2022-08-19T10:29:32.448Z,80.26733398
2022-08-19T10:30:18.409Z,80.02929688
2022-08-19T10:31:19.524Z,79.62646484
2022-08-19T10:32:20.206Z,79.82788086
2022-08-19T10:33:38.620Z,79.62646484
2022-08-19T10:34:27.539Z,79.22973633
2022-08-19T10:35:22.445Z,79.02832031
2022-08-19T10:36:22.562Z,78.39355469
2022-08-19T10:37:23.983Z,78.7902832
2022-08-19T10:38:31.805Z,78.28979492
2022-08-19T10:39:23.849Z,77.69165039
2022-08-19T10:40:24.384Z,77.89306641
2022-08-19T10:41:24.770Z,78.58886719
2022-08-19T10:42:25.197Z,78.69262695
2022-08-19T10:43:26.161Z,78.28979492
2022-08-19T10:44:32.368Z,78.49121094
2022-08-19T10:45:28.254Z,78.08837891
2022-08-19T10:46:27.474Z,78.13110352
2022-08-19T10:47:31.640Z,78.13110352
2022-08-19T10:48:28.358Z,78.02734375
2022-08-19T10:49:28.785Z,78.22875977
2022-08-19T10:50:30.169Z,78.02734375
2022-08-19T10:51:29.657Z,77.9296875
2022-08-19T10:52:32.498Z,78.22875977
2022-08-19T10:53:31.166Z,77.63061523
2022-08-19T10:54:33.438Z,77.72827148
2022-08-19T10:55:32.038Z,77.63061523
2022-08-19T10:56:33.389Z,77.2277832
2022-08-19T10:57:52.401Z,76.92871094
2022-08-19T10:58:34.150Z,77.52685547
2022-08-19T10:59:36.222Z,77.2277832
2022-08-19T11:00:35.174Z,77.28881836
2022-08-19T11:01:35.569Z,77.19116211
2022-08-19T11:02:36.019Z,77.49023438
2022-08-19T11:03:37.166Z,77.2277832
2022-08-19T11:04:37.576Z,77.02636719